createdAt,value
2023-08-07T00:02:26.752Z,100.00
2023-08-07T00:04:54.054Z,100.00
2023-08-07T00:07:20.966Z,100.00
2023-08-07T00:09:47.931Z,100.00
2023-08-07T00:12:14.779Z,100.00
2023-08-07T00:14:41.840Z,100.00
2023-08-07T00:17:09.039Z,100.00
2023-08-07T00:19:36.041Z,100.00
2023-08-07T00:22:03.033Z,100.00
2023-08-07T00:24:29.939Z,100.00
2023-08-07T00:26:57.250Z,100.00
2023-08-07T00:29:24.574Z,100.00
2023-08-07T00:31:51.387Z,100.00
2023-08-07T00:34:18.351Z,100.00
2023-08-07T00:36:45.813Z,100.00
2023-08-07T00:39:12.778Z,100.00
2023-08-07T00:41:40.822Z,100.00
2023-08-07T00:44:07.821Z,100.00
2023-08-07T00:46:36.387Z,100.00
2023-08-07T00:49:04.439Z,100.00
2023-08-07T00:51:32.113Z,100.00
2023-08-07T00:54:02.315Z,100.00
2023-08-07T00:56:31.011Z,100.00
2023-08-07T00:58:59.250Z,100.00
2023-08-07T01:01:26.806Z,100.00
2023-08-07T01:03:54.322Z,100.00
2023-08-07T01:06:21.545Z,100.00
2023-08-07T01:08:48.948Z,100.00
2023-08-07T01:11:21.704Z,100.00
2023-08-07T01:14:10.282Z,100.00
2023-08-07T01:16:51.287Z,100.00
2023-08-07T01:19:27.443Z,100.00
2023-08-07T01:22:14.602Z,100.00
2023-08-07T01:24:46.161Z,100.00
2023-08-07T01:27:19.259Z,100.00
2023-08-07T01:29:50.324Z,100.00
2023-08-07T01:32:25.298Z,100.00
2023-08-07T01:34:54.659Z,100.00
2023-08-07T01:37:23.491Z,100.00
2023-08-07T01:39:52.220Z,100.00
2023-08-07T01:42:19.278Z,100.00
2023-08-07T01:44:46.578Z,100.00
2023-08-07T01:47:13.498Z,100.00
2023-08-07T01:49:41.270Z,100.00
2023-08-07T01:52:09.371Z,100.00
2023-08-07T01:54:36.262Z,100.00
2023-08-07T01:57:03.577Z,100.00
2023-08-07T01:59:31.699Z,100.00
2023-08-07T02:01:58.818Z,100.00
2023-08-07T02:04:25.905Z,100.00
2023-08-07T02:06:54.316Z,100.00
2023-08-07T02:09:23.193Z,100.00
2023-08-07T02:11:50.324Z,100.00
2023-08-07T02:14:17.370Z,100.00
2023-08-07T02:16:44.243Z,100.00
2023-08-07T02:19:11.583Z,100.00
2023-08-07T02:21:39.557Z,100.00
2023-08-07T02:24:06.522Z,100.00
2023-08-07T02:26:33.155Z,100.00
2023-08-07T02:29:00.213Z,100.00
2023-08-07T02:31:27.085Z,100.00
2023-08-07T02:33:55.305Z,100.00
2023-08-07T02:36:22.077Z,100.00
2023-08-07T02:38:48.994Z,100.00
2023-08-07T02:41:15.851Z,100.00
2023-08-07T02:43:43.703Z,100.00
2023-08-07T02:46:10.490Z,100.00
2023-08-07T02:48:38.013Z,100.00
2023-08-07T02:51:04.883Z,100.00
2023-08-07T02:53:32.003Z,100.00
2023-08-07T02:55:58.951Z,100.00
2023-08-07T02:58:25.623Z,100.00
2023-08-07T03:00:52.743Z,100.00
2023-08-07T03:03:19.703Z,100.00
2023-08-07T03:05:51.581Z,100.00
2023-08-07T03:08:18.537Z,100.00
2023-08-07T03:10:57.459Z,100.00
2023-08-07T03:13:26.471Z,100.00
2023-08-07T03:16:19.809Z,100.00
2023-08-07T03:18:47.563Z,100.00
2023-08-07T03:21:14.751Z,100.00
2023-08-07T03:23:42.062Z,100.00
2023-08-07T03:26:18.971Z,100.00
2023-08-07T03:28:49.121Z,100.00
2023-08-07T03:31:17.215Z,100.00
2023-08-07T03:33:44.449Z,100.00
2023-08-07T03:36:12.953Z,100.00
2023-08-07T03:38:41.497Z,100.00
2023-08-07T03:41:08.964Z,100.00
2023-08-07T03:43:36.302Z,100.00
2023-08-07T03:46:04.269Z,100.00
2023-08-07T03:48:32.222Z,100.00
2023-08-07T03:51:04.901Z,100.00
2023-08-07T03:53:32.918Z,100.00
2023-08-07T03:55:59.939Z,100.00
2023-08-07T03:58:27.316Z,100.00
2023-08-07T04:00:54.890Z,100.00
2023-08-07T04:03:22.582Z,100.00
2023-08-07T04:05:54.757Z,100.00
2023-08-07T04:08:24.169Z,100.00
2023-08-07T04:11:01.695Z,100.00
2023-08-07T04:13:29.672Z,100.00
2023-08-07T04:15:57.352Z,100.00
2023-08-07T04:18:25.134Z,100.00
2023-08-07T04:20:56.527Z,100.00
2023-08-07T04:23:24.301Z,100.00
2023-08-07T04:25:52.578Z,100.00
2023-08-07T04:28:20.060Z,100.00
2023-08-07T04:30:53.957Z,100.00
2023-08-07T04:33:21.528Z,100.00
2023-08-07T04:35:49.143Z,100.00
2023-08-07T04:38:17.588Z,100.00
2023-08-07T04:40:49.552Z,100.00
2023-08-07T04:43:18.471Z,100.00
2023-08-07T04:45:48.328Z,100.00
2023-08-07T04:48:16.068Z,100.00
2023-08-07T04:50:43.086Z,100.00
2023-08-07T04:53:10.104Z,100.00
2023-08-07T04:55:37.349Z,100.00
2023-08-07T04:58:04.564Z,100.00
2023-08-07T05:00:31.361Z,100.00
2023-08-07T05:02:58.519Z,100.00
2023-08-07T05:05:25.682Z,100.00
2023-08-07T05:07:52.702Z,100.00
2023-08-07T05:10:19.771Z,100.00
2023-08-07T05:12:46.731Z,100.00
2023-08-07T05:15:13.560Z,100.00
2023-08-07T05:17:40.785Z,100.00
2023-08-07T05:20:09.365Z,100.00
2023-08-07T05:22:36.451Z,100.00
2023-08-07T05:25:03.895Z,100.00
2023-08-07T05:27:30.814Z,100.00
2023-08-07T05:29:57.780Z,100.00
2023-08-07T05:32:24.844Z,100.00
2023-08-07T05:34:51.980Z,100.00
2023-08-07T05:37:18.654Z,100.00
2023-08-07T05:39:45.786Z,100.00
2023-08-07T05:42:13.499Z,100.00
2023-08-07T05:44:40.264Z,100.00
2023-08-07T05:47:08.068Z,100.00
2023-08-07T05:49:35.056Z,100.00
2023-08-07T05:52:02.043Z,100.00
2023-08-07T05:54:29.143Z,100.00
2023-08-07T05:56:56.239Z,100.00
2023-08-07T05:59:23.295Z,100.00
2023-08-07T06:01:50.507Z,100.00
2023-08-07T06:04:18.222Z,100.00
2023-08-07T06:06:46.489Z,100.00
2023-08-07T06:09:15.594Z,100.00
2023-08-07T06:11:42.894Z,100.00
2023-08-07T06:14:10.410Z,100.00
2023-08-07T06:16:37.374Z,100.00
2023-08-07T06:21:31.971Z,100.00
2023-08-07T06:23:59.049Z,100.00
2023-08-07T06:26:25.794Z,100.00
2023-08-07T06:28:53.015Z,100.00
2023-08-07T06:31:19.737Z,100.00
2023-08-07T06:33:46.547Z,100.00
2023-08-07T06:36:13.699Z,100.00
2023-08-07T06:38:40.594Z,100.00
2023-08-07T06:41:07.680Z,100.00
2023-08-07T06:43:34.691Z,100.00
2023-08-07T06:46:01.965Z,100.00
2023-08-07T06:48:29.314Z,100.00
2023-08-07T06:50:56.065Z,100.00
2023-08-07T06:53:22.843Z,100.00
2023-08-07T06:55:49.973Z,100.00
2023-08-07T06:58:16.885Z,100.00
2023-08-07T07:00:43.844Z,100.00
2023-08-07T07:03:10.877Z,100.00
2023-08-07T07:05:38.655Z,100.00
2023-08-07T07:08:05.395Z,100.00
2023-08-07T07:10:33.064Z,100.00
2023-08-07T07:13:00.128Z,100.00
2023-08-07T07:15:27.173Z,100.00
2023-08-07T07:17:54.459Z,100.00
2023-08-07T07:20:21.698Z,100.00
2023-08-07T07:22:48.355Z,100.00
2023-08-07T07:25:15.374Z,100.00
2023-08-07T07:27:42.295Z,100.00
2023-08-07T07:30:10.186Z,100.00
2023-08-07T07:32:37.165Z,100.00
2023-08-07T07:35:04.684Z,99.96
2023-08-07T07:37:32.758Z,100.00
2023-08-07T07:39:59.531Z,100.00
2023-08-07T07:42:26.450Z,100.00
2023-08-07T07:44:53.391Z,99.90
2023-08-07T07:47:21.229Z,100.00
2023-08-07T07:49:48.271Z,99.78
2023-08-07T07:52:16.078Z,100.00
2023-08-07T07:54:45.477Z,100.00
2023-08-07T07:57:12.360Z,100.00
2023-08-07T07:59:39.378Z,100.00
2023-08-07T08:02:06.936Z,100.00
2023-08-07T08:04:35.943Z,100.00
2023-08-07T08:07:04.522Z,100.00
2023-08-07T08:09:31.508Z,100.00
2023-08-07T08:11:58.385Z,100.00
2023-08-07T08:14:25.464Z,100.00
2023-08-07T08:16:52.228Z,100.00
2023-08-07T08:19:18.997Z,100.00
2023-08-07T08:21:45.822Z,100.00
2023-08-07T08:24:12.683Z,100.00
2023-08-07T08:26:39.622Z,100.00
2023-08-07T08:29:07.469Z,100.00
2023-08-07T08:31:37.152Z,100.00
2023-08-07T08:34:04.630Z,100.00
2023-08-07T08:36:31.663Z,100.00
2023-08-07T08:38:58.619Z,100.00
2023-08-07T08:41:26.696Z,100.00
2023-08-07T08:43:55.415Z,100.00
2023-08-07T08:46:25.036Z,100.00
2023-08-07T08:48:58.054Z,100.00
2023-08-07T08:51:26.011Z,100.00
2023-08-07T08:53:54.497Z,100.00
2023-08-07T08:56:23.371Z,100.00
2023-08-07T08:58:53.809Z,100.00
2023-08-07T09:01:25.010Z,100.00
2023-08-07T09:03:54.437Z,100.00
2023-08-07T09:06:21.671Z,100.00
2023-08-07T09:08:51.442Z,98.88
2023-08-07T09:11:19.796Z,95.66
2023-08-07T09:13:49.592Z,94.67
2023-08-07T09:16:18.193Z,91.94
2023-08-07T09:18:46.343Z,89.62
2023-08-07T09:21:16.719Z,83.22
2023-08-07T09:23:44.127Z,84.21
2023-08-07T09:26:11.474Z,83.47
2023-08-07T09:28:39.353Z,82.98
2023-08-07T09:31:10.129Z,84.34
2023-08-07T09:33:40.008Z,82.28
2023-08-07T09:36:06.744Z,82.55
2023-08-07T09:38:33.734Z,83.82
2023-08-07T09:41:02.100Z,84.52
2023-08-07T09:43:29.120Z,82.51
2023-08-07T09:46:06.577Z,80.32
2023-08-07T09:48:41.499Z,78.16
2023-08-07T09:51:08.484Z,77.83
2023-08-07T09:53:35.688Z,78.95
2023-08-07T09:56:03.840Z,78.08
2023-08-07T09:58:30.660Z,78.03
2023-08-07T10:01:04.784Z,79.53
2023-08-07T10:03:32.397Z,81.41
2023-08-07T10:06:00.129Z,80.81
2023-08-07T10:08:27.467Z,79.09
2023-08-07T10:10:55.021Z,78.43
2023-08-07T10:13:34.433Z,78.79
2023-08-07T10:16:07.351Z,79.21
2023-08-07T10:18:35.958Z,75.11
2023-08-07T10:21:06.154Z,77.31
2023-08-07T10:23:36.809Z,77.35
2023-08-07T10:26:09.419Z,76.82
2023-08-07T10:28:39.909Z,77.69
2023-08-07T10:31:12.827Z,76.98
2023-08-07T10:33:41.817Z,78.88
2023-08-07T10:36:10.739Z,77.63
2023-08-07T10:38:38.241Z,72.77
2023-08-07T10:41:15.165Z,73.39
2023-08-07T10:43:44.122Z,74.18
2023-08-07T10:46:21.331Z,72.94
2023-08-07T10:49:01.042Z,72.22
2023-08-07T10:51:34.043Z,72.85
2023-08-07T10:54:02.668Z,74.73
2023-08-07T10:56:37.810Z,75.50
2023-08-07T10:59:12.887Z,74.30
2023-08-07T11:01:40.251Z,74.84
2023-08-07T11:04:15.186Z,75.00
2023-08-07T11:06:45.215Z,74.40
2023-08-07T11:09:12.263Z,75.46
2023-08-07T11:11:43.857Z,78.08
2023-08-07T11:14:15.994Z,78.73
2023-08-07T11:16:43.957Z,81.77
2023-08-07T11:19:14.223Z,78.54
2023-08-07T11:21:43.072Z,78.34
2023-08-07T11:24:14.541Z,79.02
2023-08-07T11:26:44.455Z,79.99
2023-08-07T11:29:11.401Z,79.56
2023-08-07T11:31:38.388Z,79.94
2023-08-07T11:34:05.605Z,76.92
2023-08-07T11:36:34.414Z,73.41
2023-08-07T11:39:01.746Z,70.40
2023-08-07T11:41:32.777Z,69.59
2023-08-07T11:44:00.582Z,67.38
2023-08-07T11:46:28.004Z,66.26
2023-08-07T11:48:56.747Z,67.74
2023-08-07T11:51:24.029Z,67.86
2023-08-07T11:53:57.052Z,68.62
2023-08-07T11:56:24.017Z,63.00
2023-08-07T11:58:53.603Z,63.83
2023-08-07T12:01:27.153Z,64.20
2023-08-07T12:04:08.891Z,65.36
2023-08-07T12:06:36.686Z,66.37
2023-08-07T12:09:04.104Z,68.74
2023-08-07T12:11:31.828Z,68.15
2023-08-07T12:14:04.116Z,67.76
2023-08-07T12:16:36.299Z,66.35
2023-08-07T12:19:05.608Z,65.67
2023-08-07T12:21:34.049Z,67.00
2023-08-07T12:24:01.040Z,64.40
2023-08-07T12:26:27.910Z,63.51
2023-08-07T12:28:55.495Z,61.41
2023-08-07T12:31:23.148Z,60.81
2023-08-07T12:33:50.114Z,60.79
2023-08-07T12:36:20.988Z,61.09
2023-08-07T12:38:49.001Z,57.99
2023-08-07T12:43:46.226Z,56.96
2023-08-07T12:48:42.825Z,54.50
2023-08-07T12:51:09.770Z,56.02
2023-08-07T12:53:36.820Z,55.15
2023-08-07T12:56:05.605Z,56.07
2023-08-07T12:58:32.683Z,58.38
2023-08-07T13:00:59.417Z,58.93
2023-08-07T13:03:26.415Z,55.94
2023-08-07T13:05:53.620Z,56.51
2023-08-07T13:08:20.410Z,58.06
2023-08-07T13:10:50.028Z,57.01
2023-08-07T13:13:17.611Z,57.01
2023-08-07T13:15:44.436Z,59.51
2023-08-07T13:18:11.626Z,59.65
2023-08-07T13:20:38.408Z,58.94
2023-08-07T13:23:06.757Z,55.98
2023-08-07T13:25:33.884Z,57.01
2023-08-07T13:28:02.082Z,57.81
2023-08-07T13:30:33.585Z,58.10
2023-08-07T13:33:03.128Z,54.80
2023-08-07T13:35:30.398Z,54.13
2023-08-07T13:37:57.361Z,54.28
2023-08-07T13:40:24.530Z,54.52
2023-08-07T13:42:51.523Z,53.43
2023-08-07T13:45:18.170Z,53.97
2023-08-07T13:47:44.862Z,53.42
2023-08-07T13:50:13.293Z,52.73
2023-08-07T13:52:40.039Z,53.63
2023-08-07T13:55:09.449Z,53.25
2023-08-07T13:57:36.520Z,53.84
2023-08-07T14:00:04.252Z,53.25
2023-08-07T14:02:34.136Z,52.51
2023-08-07T14:05:01.321Z,52.74
2023-08-07T14:07:28.106Z,53.11
2023-08-07T14:09:55.054Z,53.57
2023-08-07T14:12:21.873Z,54.58
2023-08-07T14:14:48.815Z,55.18
2023-08-07T14:17:15.858Z,53.36
2023-08-07T14:19:43.137Z,53.97
2023-08-07T14:22:10.811Z,54.82
2023-08-07T14:24:38.032Z,55.01
2023-08-07T14:27:05.186Z,51.93
2023-08-07T14:29:32.333Z,53.18
2023-08-07T14:31:59.386Z,54.38
2023-08-07T14:34:26.166Z,53.10
2023-08-07T14:36:54.940Z,54.50
2023-08-07T14:39:22.663Z,55.40
2023-08-07T14:41:52.572Z,53.08
2023-08-07T14:44:19.445Z,54.42
2023-08-07T14:46:46.598Z,55.10
2023-08-07T14:49:13.457Z,54.54
2023-08-07T14:51:40.485Z,53.99
2023-08-07T14:54:07.460Z,54.93
2023-08-07T14:56:34.383Z,55.27
2023-08-07T14:59:01.468Z,54.16
2023-08-07T15:01:28.356Z,53.76
2023-08-07T15:03:55.428Z,54.25
2023-08-07T15:06:22.477Z,53.70
2023-08-07T15:08:49.553Z,53.55
2023-08-07T15:11:17.505Z,53.18
2023-08-07T15:13:44.587Z,52.89
2023-08-07T15:16:13.501Z,53.46
2023-08-07T15:19:05.722Z,52.92
2023-08-07T15:21:32.747Z,51.96
2023-08-07T15:23:59.992Z,52.44
2023-08-07T15:26:27.557Z,53.54
2023-08-07T15:28:54.799Z,53.47
2023-08-07T15:31:21.801Z,54.73
2023-08-07T15:33:51.363Z,55.14
2023-08-07T15:36:18.107Z,55.56
2023-08-07T15:38:44.953Z,56.64
2023-08-07T15:41:12.608Z,56.98
2023-08-07T15:43:39.574Z,56.94
2023-08-07T15:46:06.428Z,57.84
2023-08-07T15:48:33.219Z,57.28
2023-08-07T15:51:00.111Z,57.26
2023-08-07T15:53:27.356Z,56.84
2023-08-07T15:55:54.400Z,57.17
2023-08-07T15:58:23.399Z,57.97
2023-08-07T16:00:50.867Z,58.66
2023-08-07T16:03:18.313Z,58.97
2023-08-07T16:05:45.742Z,59.67
2023-08-07T16:08:12.537Z,59.77
2023-08-07T16:10:39.459Z,58.24
2023-08-07T16:13:06.509Z,58.62
2023-08-07T16:15:34.891Z,58.98
2023-08-07T16:18:03.902Z,58.78
2023-08-07T16:20:31.858Z,58.98
2023-08-07T16:22:58.727Z,58.98
2023-08-07T16:25:25.669Z,59.24
2023-08-07T16:27:52.906Z,60.16
2023-08-07T16:30:19.956Z,60.72
2023-08-07T16:32:46.638Z,63.82
2023-08-07T16:35:14.672Z,64.04
2023-08-07T16:37:42.733Z,63.80
2023-08-07T16:40:10.913Z,65.63
2023-08-07T16:42:37.981Z,64.88
2023-08-07T16:45:05.803Z,65.64
2023-08-07T16:47:32.745Z,65.80
2023-08-07T16:49:59.974Z,66.58
2023-08-07T16:52:27.403Z,66.53
2023-08-07T16:54:55.013Z,67.08
2023-08-07T16:57:22.543Z,67.74
2023-08-07T16:59:49.466Z,68.42
2023-08-07T17:02:16.434Z,69.45
2023-08-07T17:04:43.566Z,70.44
2023-08-07T17:07:10.913Z,71.48
2023-08-07T17:09:37.965Z,71.57
2023-08-07T17:12:05.740Z,72.25
2023-08-07T17:14:33.546Z,72.96
2023-08-07T17:17:00.616Z,73.70
2023-08-07T17:19:28.024Z,74.61
2023-08-07T17:21:55.057Z,74.93
2023-08-07T17:24:21.910Z,76.39
2023-08-07T17:26:48.857Z,76.48
2023-08-07T17:29:15.629Z,77.81
2023-08-07T17:31:43.556Z,76.90
2023-08-07T17:34:11.298Z,76.23
2023-08-07T17:36:38.493Z,75.48
2023-08-07T17:39:05.731Z,74.29
2023-08-07T17:41:32.696Z,74.74
2023-08-07T17:43:59.630Z,74.27
2023-08-07T17:46:26.642Z,73.89
2023-08-07T17:48:54.035Z,74.10
2023-08-07T17:51:20.916Z,74.21
2023-08-07T17:53:47.853Z,74.36
2023-08-07T17:56:14.675Z,75.63
2023-08-07T17:58:41.440Z,75.44
2023-08-07T18:01:08.819Z,75.31
2023-08-07T18:03:35.943Z,74.19
2023-08-07T18:06:03.119Z,74.04
2023-08-07T18:08:29.867Z,73.87
2023-08-07T18:10:56.973Z,74.03
2023-08-07T18:13:24.055Z,73.89
2023-08-07T18:15:51.180Z,73.96
2023-08-07T18:18:18.385Z,74.78
2023-08-07T18:20:45.597Z,74.44
2023-08-07T18:23:14.586Z,73.84
2023-08-07T18:25:41.743Z,75.14
2023-08-07T18:28:08.687Z,75.86
2023-08-07T18:30:35.426Z,75.37
2023-08-07T18:33:02.529Z,76.34
2023-08-07T18:35:29.320Z,76.89
2023-08-07T18:37:57.460Z,77.37
2023-08-07T18:40:24.371Z,76.80
2023-08-07T18:42:51.481Z,77.26
2023-08-07T18:45:21.055Z,79.73
2023-08-07T18:47:48.065Z,80.98
2023-08-07T18:50:14.849Z,81.15
2023-08-07T18:52:41.645Z,80.64
2023-08-07T18:55:09.593Z,82.08
2023-08-07T18:57:36.766Z,81.22
2023-08-07T19:00:06.724Z,81.21
2023-08-07T19:02:33.715Z,83.01
2023-08-07T19:05:01.074Z,83.47
2023-08-07T19:07:28.217Z,85.64
2023-08-07T19:09:55.290Z,86.60
2023-08-07T19:12:22.530Z,86.28
2023-08-07T19:14:49.599Z,84.71
2023-08-07T19:17:16.524Z,89.21
2023-08-07T19:19:43.474Z,88.01
2023-08-07T19:22:10.615Z,87.27
2023-08-07T19:24:40.121Z,91.20
2023-08-07T19:27:07.280Z,92.58
2023-08-07T19:29:34.118Z,91.32
2023-08-07T19:32:01.505Z,88.74
2023-08-07T19:34:28.522Z,90.17
2023-08-07T19:36:55.489Z,88.82
2023-08-07T19:39:24.915Z,90.17
2023-08-07T19:41:51.637Z,90.35
2023-08-07T19:44:18.566Z,92.46
2023-08-07T19:46:45.646Z,89.99
2023-08-07T19:49:12.666Z,90.71
2023-08-07T19:51:39.922Z,92.92
2023-08-07T19:54:08.317Z,93.56
2023-08-07T19:56:36.794Z,92.46
2023-08-07T19:59:05.925Z,93.69
2023-08-07T20:01:33.409Z,94.71
2023-08-07T20:04:01.169Z,94.14
2023-08-07T20:06:36.100Z,92.93
2023-08-07T20:09:03.704Z,92.15
2023-08-07T20:11:38.216Z,92.52
2023-08-07T20:14:05.416Z,95.35
2023-08-07T20:16:33.774Z,96.10
2023-08-07T20:19:00.630Z,97.19
2023-08-07T20:21:28.482Z,98.06
2023-08-07T20:23:55.755Z,99.03
2023-08-07T20:26:24.836Z,98.11
2023-08-07T20:28:51.911Z,99.29
2023-08-07T20:31:18.983Z,99.87
2023-08-07T20:33:45.926Z,98.59
2023-08-07T20:36:12.833Z,98.17
2023-08-07T20:38:39.770Z,99.45
2023-08-07T20:41:06.639Z,99.15
2023-08-07T20:43:33.586Z,99.93
2023-08-07T20:46:00.552Z,100.00
2023-08-07T20:48:27.368Z,100.00
2023-08-07T20:50:54.550Z,100.00
2023-08-07T20:53:22.785Z,100.00
2023-08-07T20:55:49.850Z,100.00
2023-08-07T20:58:16.898Z,100.00
2023-08-07T21:00:43.949Z,100.00
2023-08-07T21:03:11.426Z,100.00
2023-08-07T21:05:38.542Z,99.59
2023-08-07T21:08:06.335Z,99.31
2023-08-07T21:10:33.261Z,99.08
2023-08-07T21:13:00.025Z,99.63
2023-08-07T21:15:29.926Z,100.00
2023-08-07T21:17:58.195Z,100.00
2023-08-07T21:20:25.396Z,100.00
2023-08-07T21:22:53.954Z,100.00
2023-08-07T21:25:21.738Z,100.00
2023-08-07T21:27:48.748Z,100.00
2023-08-07T21:30:15.760Z,100.00
2023-08-07T21:32:44.658Z,100.00
2023-08-07T21:35:12.466Z,100.00
2023-08-07T21:37:40.035Z,100.00
2023-08-07T21:40:09.571Z,100.00
2023-08-07T21:42:36.586Z,100.00
2023-08-07T21:45:04.257Z,100.00
2023-08-07T21:47:31.123Z,100.00
2023-08-07T21:49:58.335Z,100.00
2023-08-07T21:52:25.395Z,100.00
2023-08-07T21:54:52.263Z,100.00
2023-08-07T21:57:19.603Z,100.00
2023-08-07T21:59:46.644Z,100.00
2023-08-07T22:02:13.633Z,100.00
2023-08-07T22:04:40.996Z,100.00
2023-08-07T22:07:08.000Z,100.00
2023-08-07T22:09:35.081Z,100.00
2023-08-07T22:12:02.514Z,100.00
2023-08-07T22:14:29.458Z,100.00
2023-08-07T22:16:56.600Z,100.00
2023-08-07T22:19:23.864Z,100.00
2023-08-07T22:21:50.801Z,100.00
2023-08-07T22:24:17.759Z,100.00
2023-08-07T22:26:44.823Z,100.00
2023-08-07T22:29:11.854Z,100.00
2023-08-07T22:31:38.925Z,100.00
2023-08-07T22:34:06.326Z,100.00
2023-08-07T22:36:33.649Z,100.00
2023-08-07T22:39:00.473Z,100.00
2023-08-07T22:41:27.721Z,100.00
2023-08-07T22:43:54.618Z,100.00
2023-08-07T22:46:21.877Z,100.00
2023-08-07T22:48:48.995Z,100.00
2023-08-07T22:51:15.965Z,100.00
2023-08-07T22:53:42.871Z,100.00
2023-08-07T22:56:09.951Z,100.00
2023-08-07T22:58:36.968Z,100.00
2023-08-07T23:01:04.158Z,100.00
2023-08-07T23:03:31.484Z,100.00
2023-08-07T23:05:58.742Z,100.00
2023-08-07T23:08:25.704Z,100.00
2023-08-07T23:10:53.544Z,100.00
2023-08-07T23:13:20.592Z,100.00
2023-08-07T23:15:47.877Z,100.00
2023-08-07T23:18:15.134Z,100.00
2023-08-07T23:20:42.260Z,100.00
2023-08-07T23:23:09.407Z,100.00
2023-08-07T23:25:36.375Z,100.00
2023-08-07T23:28:03.925Z,100.00
2023-08-07T23:30:30.895Z,100.00
2023-08-07T23:32:57.878Z,100.00
2023-08-07T23:35:25.158Z,100.00
2023-08-07T23:37:52.626Z,100.00
2023-08-07T23:40:19.869Z,100.00
2023-08-07T23:42:47.943Z,100.00
2023-08-07T23:45:14.925Z,100.00
2023-08-07T23:47:42.020Z,100.00
2023-08-07T23:50:09.911Z,100.00
2023-08-07T23:52:37.816Z,100.00
2023-08-07T23:55:05.240Z,100.00
2023-08-07T23:57:32.297Z,100.00
2023-08-07T23:59:59.142Z,100.00
